Terminal Aerodrome Forecast
Issued by NWS

Home | Current Version | Previous Version | Text Only | Print | Product List | Glossary On
Versions: 1 2 3 4 5 6 7 8 9 10 11 12 13 14 15
000
FTUS46 KPDT 281700
TAFYKM
TAF
KYKM 281720Z 2818/2918 29018G24KT P6SM SCT060
     FM282000 25012G20KT P6SM SCT060 SCT150
     FM290200 29010KT P6SM FEW100 SCT200
     FM290500 27007KT P6SM SCT090
     FM291300 27005KT P6SM SCT070 BKN100=

USA.gov is the U.S. government's official web portal to all federal, state and local government web resources and services.